createdAt,value
2019-01-25T00:00:07.512Z,92.85
2019-01-25T00:05:15.222Z,128.84
2019-01-25T00:10:22.917Z,97.88
2019-01-25T00:15:30.613Z,129.26
2019-01-25T00:20:38.396Z,155.84
2019-01-25T00:25:46.162Z,92.02
2019-01-25T00:30:53.866Z,98.92
2019-01-25T00:36:01.576Z,108.94
2019-01-25T00:41:09.275Z,130.08
2019-01-25T00:46:16.979Z,97.52
2019-01-25T00:51:24.673Z,129.88
2019-01-25T00:56:32.427Z,99.33
2019-01-25T01:01:40.105Z,101.72
2019-01-25T01:06:47.824Z,99.88
2019-01-25T01:11:55.518Z,127.64
2019-01-25T01:17:03.214Z,102.07
2019-01-25T01:22:10.906Z,114.83
2019-01-25T01:27:18.687Z,101.76
2019-01-25T01:32:26.375Z,114.42
2019-01-25T01:37:34.091Z,100.51
2019-01-25T01:42:41.782Z,136.60
2019-01-25T01:47:49.556Z,154.72
2019-01-25T01:52:57.233Z,151.16
2019-01-25T01:58:04.939Z,104.02
2019-01-25T02:03:12.612Z,112.47
2019-01-25T02:08:20.394Z,99.25
2019-01-25T02:13:28.073Z,99.82
2019-01-25T02:18:35.841Z,121.34
2019-01-25T02:23:43.518Z,101.32
2019-01-25T02:28:51.222Z,117.27
2019-01-25T02:34:00.607Z,95.27
2019-01-25T02:39:06.192Z,118.15
2019-01-25T02:44:13.883Z,99.60
2019-01-25T02:49:21.598Z,130.46
2019-01-25T02:54:29.303Z,104.33
2019-01-25T02:59:37.062Z,131.76
2019-01-25T03:04:44.741Z,101.27
2019-01-25T03:09:52.515Z,136.46
2019-01-25T03:15:00.271Z,102.79
2019-01-25T03:20:07.974Z,130.39
2019-01-25T03:25:15.642Z,154.89
2019-01-25T03:30:23.410Z,103.37
2019-01-25T03:35:31.103Z,118.43
2019-01-25T03:40:38.814Z,130.87
2019-01-25T03:45:46.504Z,105.01
2019-01-25T03:50:54.223Z,103.04
2019-01-25T03:56:01.924Z,138.03
2019-01-25T04:01:09.658Z,105.26
2019-01-25T04:06:17.312Z,104.73
2019-01-25T04:11:25.021Z,119.66
2019-01-25T04:16:32.699Z,102.62
2019-01-25T04:21:40.495Z,103.11
2019-01-25T04:26:48.199Z,119.94
2019-01-25T04:31:55.992Z,115.95
2019-01-25T04:37:03.709Z,115.81
2019-01-25T04:42:11.463Z,115.40
2019-01-25T04:47:19.182Z,99.91
2019-01-25T04:52:26.983Z,133.26
2019-01-25T04:57:34.695Z,162.43
2019-01-25T05:02:42.395Z,156.99
2019-01-25T05:07:50.019Z,157.98
2019-01-25T05:12:57.695Z,159.66
2019-01-25T05:18:05.324Z,97.56
2019-01-25T05:23:13.026Z,117.27
2019-01-25T05:28:20.646Z,101.40
2019-01-25T05:33:28.306Z,132.56
2019-01-25T05:38:35.914Z,101.07
2019-01-25T05:43:43.610Z,137.61
2019-01-25T05:48:51.241Z,157.73
2019-01-25T05:53:58.944Z,103.76
2019-01-25T05:59:06.656Z,121.08
2019-01-25T06:04:14.322Z,119.94
2019-01-25T06:09:21.949Z,104.89
2019-01-25T06:14:29.446Z,106.89
2019-01-25T06:19:37.299Z,148.08
2019-01-25T06:24:44.801Z,104.58
2019-01-25T06:29:52.446Z,140.36
2019-01-25T06:35:00.153Z,142.79
2019-01-25T06:40:07.728Z,109.92
2019-01-25T06:45:15.396Z,144.62
2019-01-25T06:50:22.857Z,117.31
2019-01-25T06:55:31.776Z,156.06
2019-01-25T07:00:39.425Z,118.88
2019-01-25T07:05:47.141Z,156.56
2019-01-25T07:11:01.083Z,123.11
2019-01-25T07:16:00.797Z,128.07
2019-01-25T07:21:08.452Z,182.15
2019-01-25T07:26:16.187Z,157.31
2019-01-25T07:31:23.843Z,186.41
2019-01-25T07:36:31.554Z,165.26
2019-01-25T07:41:39.168Z,216.06
2019-01-25T07:46:46.829Z,174.77
2019-01-25T07:51:54.458Z,194.01
2019-01-25T07:57:02.118Z,147.87
2019-01-25T08:02:09.724Z,182.23
2019-01-25T08:07:17.197Z,137.87
2019-01-25T08:12:27.946Z,188.54
2019-01-25T08:17:25.633Z,140.77
2019-01-25T08:22:33.397Z,117.71
2019-01-25T08:27:41.067Z,110.87
2019-01-25T08:32:48.730Z,144.74
2019-01-25T08:37:58.321Z,112.22
2019-01-25T08:43:05.993Z,181.20
2019-01-25T08:48:13.664Z,148.26
2019-01-25T08:53:21.438Z,186.68
2019-01-25T08:58:32.436Z,108.35
2019-01-25T09:03:31.357Z,122.08
2019-01-25T09:08:39.028Z,91.53
2019-01-25T09:13:46.704Z,99.20
2019-01-25T09:18:54.333Z,78.65
2019-01-25T09:24:02.042Z,80.42
2019-01-25T09:29:09.696Z,105.73
2019-01-25T09:34:17.338Z,97.95
2019-01-25T09:39:24.961Z,87.52
2019-01-25T09:44:32.638Z,101.95
2019-01-25T09:49:40.244Z,117.14
2019-01-25T09:54:47.958Z,110.19
2019-01-25T09:59:55.618Z,85.18
2019-01-25T10:05:03.296Z,82.58
2019-01-25T10:10:10.949Z,85.54
2019-01-25T10:15:18.593Z,86.77
2019-01-25T10:20:26.232Z,118.86
2019-01-25T10:25:33.955Z,142.13
2019-01-25T10:30:41.624Z,89.54
2019-01-25T10:35:49.313Z,85.35
2019-01-25T10:40:56.923Z,85.38
2019-01-25T10:46:04.630Z,90.88
2019-01-25T10:51:12.234Z,81.59
2019-01-25T10:56:19.918Z,85.52
2019-01-25T11:01:27.548Z,81.28
2019-01-25T11:06:35.302Z,91.75
2019-01-25T11:11:42.942Z,110.10
2019-01-25T11:16:50.636Z,90.06
2019-01-25T11:21:58.269Z,88.70
2019-01-25T11:27:06.018Z,89.95
2019-01-25T11:32:13.637Z,91.78
2019-01-25T11:37:21.320Z,93.95
2019-01-25T11:42:28.946Z,85.05
2019-01-25T11:47:36.570Z,82.62
2019-01-25T11:52:44.252Z,96.81
2019-01-25T11:57:51.868Z,83.03
2019-01-25T12:02:59.496Z,79.03
2019-01-25T12:08:07.173Z,81.32
2019-01-25T12:13:16.298Z,83.88
2019-01-25T12:18:22.047Z,78.63
2019-01-25T12:23:29.723Z,76.34
2019-01-25T12:28:37.352Z,78.37
2019-01-25T12:33:45.063Z,70.75
2019-01-25T12:38:52.705Z,72.82
2019-01-25T12:44:00.399Z,83.00
2019-01-25T12:49:08.070Z,70.70
2019-01-25T12:54:15.727Z,68.93
2019-01-25T12:59:23.375Z,64.97
2019-01-25T13:04:30.862Z,72.25
2019-01-25T13:09:38.638Z,68.18
2019-01-25T13:14:46.257Z,68.36
2019-01-25T13:19:53.918Z,71.93
2019-01-25T13:25:01.569Z,69.80
2019-01-25T13:30:09.238Z,69.40
2019-01-25T13:35:16.860Z,70.01
2019-01-25T13:40:24.569Z,74.51
2019-01-25T13:45:32.203Z,69.98
2019-01-25T13:50:39.868Z,72.83
2019-01-25T13:55:47.497Z,66.04
2019-01-25T14:00:55.128Z,67.73
2019-01-25T14:06:02.793Z,65.02
2019-01-25T14:11:10.417Z,72.86
2019-01-25T14:16:18.234Z,73.85
2019-01-25T14:21:25.889Z,90.57
2019-01-25T14:26:34.153Z,88.17
2019-01-25T14:31:40.737Z,98.10
2019-01-25T14:36:48.421Z,82.34
2019-01-25T14:41:56.029Z,83.62
2019-01-25T14:47:03.697Z,78.42
2019-01-25T14:52:11.333Z,83.02
2019-01-25T14:57:18.996Z,88.22
2019-01-25T15:02:26.641Z,95.13
2019-01-25T15:07:34.271Z,86.32
2019-01-25T15:12:41.911Z,95.70
2019-01-25T15:17:49.521Z,92.45
2019-01-25T15:22:57.180Z,96.01
2019-01-25T15:28:04.854Z,99.22
2019-01-25T15:33:12.656Z,98.02
2019-01-25T15:38:20.142Z,102.01
2019-01-25T15:43:27.770Z,103.38
2019-01-25T15:48:35.424Z,110.66
2019-01-25T15:53:43.157Z,107.72
2019-01-25T15:58:50.792Z,130.33
2019-01-25T16:03:58.486Z,105.56
2019-01-25T16:09:06.120Z,101.47
2019-01-25T16:14:18.052Z,103.34
2019-01-25T16:19:20.988Z,114.39
2019-01-25T16:24:28.731Z,106.70
2019-01-25T16:29:36.344Z,130.43
2019-01-25T16:34:43.991Z,115.85
2019-01-25T16:39:51.674Z,90.48
2019-01-25T16:44:59.364Z,99.52
2019-01-25T16:50:06.969Z,95.56
2019-01-25T16:55:14.591Z,98.58
2019-01-25T17:00:22.228Z,90.49
2019-01-25T17:05:29.870Z,91.68
2019-01-25T17:10:37.529Z,79.76
2019-01-25T17:15:47.610Z,86.10
2019-01-25T17:20:45.278Z,87.88
2019-01-25T17:25:52.950Z,82.65
2019-01-25T17:31:00.682Z,90.89
2019-01-25T17:36:08.317Z,89.42
2019-01-25T17:41:15.950Z,87.11
2019-01-25T17:46:23.573Z,100.30
2019-01-25T17:51:31.276Z,92.53
2019-01-25T17:56:38.911Z,88.55
2019-01-25T18:01:46.596Z,96.83
2019-01-25T18:06:54.215Z,79.46
2019-01-25T18:12:01.833Z,74.93
2019-01-25T18:17:09.512Z,73.66
2019-01-25T18:22:17.140Z,71.71
2019-01-25T18:27:24.852Z,65.20
2019-01-25T18:32:32.474Z,63.36
2019-01-25T18:37:40.168Z,61.77
2019-01-25T18:42:47.781Z,65.36
2019-01-25T18:47:55.413Z,60.95
2019-01-25T18:53:03.070Z,63.11
2019-01-25T18:58:10.733Z,83.07
2019-01-25T19:03:18.361Z,64.60
2019-01-25T19:08:26.016Z,65.64
2019-01-25T19:13:33.641Z,66.68
2019-01-25T19:18:41.273Z,69.96
2019-01-25T19:23:48.921Z,68.42
2019-01-25T19:28:56.596Z,71.68
2019-01-25T19:34:04.245Z,72.51
2019-01-25T19:39:11.902Z,74.69
2019-01-25T19:44:19.554Z,92.17
2019-01-25T19:49:27.249Z,79.37
2019-01-25T19:54:34.961Z,77.85
2019-01-25T19:59:42.592Z,76.81
2019-01-25T20:04:50.217Z,76.26
2019-01-25T20:09:57.872Z,82.90
2019-01-25T20:15:05.480Z,81.98
2019-01-25T20:20:13.128Z,90.80
2019-01-25T20:25:20.760Z,92.78
2019-01-25T20:30:28.469Z,95.44
2019-01-25T20:35:36.072Z,109.97
2019-01-25T20:40:43.744Z,102.16
2019-01-25T20:45:51.386Z,112.60
2019-01-25T20:50:59.029Z,150.85
2019-01-25T20:56:06.670Z,117.64
2019-01-25T21:01:14.341Z,122.25
2019-01-25T21:06:22.010Z,128.71
2019-01-25T21:11:29.641Z,146.65
2019-01-25T21:16:37.283Z,156.72
2019-01-25T21:21:44.924Z,181.43
2019-01-25T21:26:52.546Z,193.42
2019-01-25T21:32:00.361Z,203.31
2019-01-25T21:37:07.985Z,221.71
2019-01-25T21:42:15.665Z,209.50
2019-01-25T21:47:23.289Z,254.90
2019-01-25T21:52:30.932Z,252.81
2019-01-25T21:57:38.626Z,270.97
2019-01-25T22:02:46.264Z,272.55
2019-01-25T22:07:53.886Z,279.17
2019-01-25T22:13:01.509Z,300.20
2019-01-25T22:18:09.141Z,283.03
2019-01-25T22:23:17.066Z,348.38
2019-01-25T22:29:24.922Z,334.50
2019-01-25T22:34:32.593Z,258.13
2019-01-25T22:39:40.285Z,303.96
2019-01-25T22:44:47.941Z,311.52
2019-01-25T22:49:55.548Z,312.96
2019-01-25T22:55:03.267Z,331.51
2019-01-25T23:00:10.840Z,336.29
2019-01-25T23:05:18.530Z,330.46
2019-01-25T23:10:26.172Z,347.65
2019-01-25T23:15:33.800Z,377.33
2019-01-25T23:20:41.432Z,371.85
2019-01-25T23:25:49.156Z,362.89
2019-01-25T23:30:56.780Z,414.78
2019-01-25T23:36:04.463Z,357.44
2019-01-25T23:41:12.068Z,368.19
2019-01-25T23:46:19.707Z,341.05
2019-01-25T23:51:27.456Z,429.62
2019-01-25T23:56:35.080Z,345.50
